createdAt,value
2023-01-05T00:00:09.354Z,101642.47
2023-01-05T00:02:41.692Z,101632.84
2023-01-05T00:05:08.546Z,101637.47
2023-01-05T00:07:35.045Z,101633.78
2023-01-05T00:10:01.512Z,101636.75
2023-01-05T00:12:46.729Z,101624.88
2023-01-05T00:15:31.698Z,101636.06
2023-01-05T00:18:16.474Z,101628.16
2023-01-05T00:21:01.434Z,101638.34
2023-01-05T00:23:30.982Z,101637.38
2023-01-05T00:25:57.473Z,101628.00
2023-01-05T00:28:23.968Z,101630.59
2023-01-05T00:30:50.426Z,101629.56
2023-01-05T00:33:17.821Z,101630.88
2023-01-05T00:35:44.397Z,101618.41
2023-01-05T00:38:11.011Z,101638.94
2023-01-05T00:40:38.808Z,101628.88
2023-01-05T00:43:05.332Z,101634.06
2023-01-05T00:45:32.107Z,101640.50
2023-01-05T00:47:58.605Z,101648.56
2023-01-05T00:50:25.189Z,101639.72
2023-01-05T00:52:51.621Z,101640.34
2023-01-05T00:55:18.172Z,101657.09
2023-01-05T00:57:45.345Z,101663.41
2023-01-05T01:00:15.524Z,101656.97
2023-01-05T01:02:41.957Z,101671.13
2023-01-05T01:05:08.809Z,101667.00
2023-01-05T01:07:35.238Z,101667.50
2023-01-05T01:10:04.699Z,101664.44
2023-01-05T01:12:31.228Z,101661.53
2023-01-05T01:14:57.828Z,101667.72
2023-01-05T01:17:25.045Z,101675.03
2023-01-05T01:19:51.497Z,101671.13
2023-01-05T01:22:18.969Z,101670.31
2023-01-05T01:24:45.407Z,101674.00
2023-01-05T01:27:12.298Z,101681.13
2023-01-05T01:29:39.881Z,101681.81
2023-01-05T01:32:06.734Z,101690.97
2023-01-05T01:34:33.766Z,101687.19
2023-01-05T01:39:32.796Z,101692.69
2023-01-05T01:42:03.800Z,101691.63
2023-01-05T01:44:49.221Z,101701.19
2023-01-05T01:47:28.958Z,101697.56
2023-01-05T01:49:59.403Z,101699.47
2023-01-05T01:52:29.299Z,101692.31
2023-01-05T01:54:57.147Z,101700.41
2023-01-05T01:57:28.232Z,101699.72
2023-01-05T01:59:55.783Z,101693.19
2023-01-05T02:02:23.579Z,101703.09
2023-01-05T02:04:51.239Z,101700.50
2023-01-05T02:07:18.088Z,101724.69
2023-01-05T02:09:44.963Z,101715.56
2023-01-05T02:12:30.270Z,101718.34
2023-01-05T02:15:22.111Z,101724.69
2023-01-05T02:18:11.165Z,101725.38
2023-01-05T02:21:13.194Z,101716.09
2023-01-05T02:24:06.957Z,101723.34
2023-01-05T02:26:42.683Z,101726.06
2023-01-05T02:29:41.748Z,101722.84
2023-01-05T02:32:19.695Z,101726.25
2023-01-05T02:34:58.821Z,101720.06
2023-01-05T02:37:37.775Z,101729.13
2023-01-05T02:40:34.628Z,101721.13
2023-01-05T02:43:03.109Z,101730.75
2023-01-05T02:45:30.544Z,101733.47
2023-01-05T02:48:00.125Z,101731.81
2023-01-05T02:50:31.724Z,101730.94
2023-01-05T02:53:04.168Z,101741.38
2023-01-05T02:56:00.823Z,101744.88
2023-01-05T02:58:37.982Z,101732.44
2023-01-05T03:01:11.727Z,101731.44
2023-01-05T03:03:45.012Z,101734.88
2023-01-05T03:06:32.983Z,101734.00
2023-01-05T03:09:01.693Z,101740.53
2023-01-05T03:12:03.097Z,101741.47
2023-01-05T03:14:38.225Z,101729.91
2023-01-05T03:17:10.743Z,101748.00
2023-01-05T03:19:45.538Z,101740.84
2023-01-05T03:22:31.304Z,101734.53
2023-01-05T03:25:19.941Z,101735.47
2023-01-05T03:28:07.762Z,101731.13
2023-01-05T03:31:05.063Z,101738.25
2023-01-05T03:34:06.795Z,101742.72
2023-01-05T03:36:40.107Z,101755.41
2023-01-05T03:39:10.277Z,101748.25
2023-01-05T03:41:38.986Z,101757.41
2023-01-05T03:44:06.973Z,101744.81
2023-01-05T03:46:38.840Z,101750.19
2023-01-05T03:49:05.413Z,101751.91
2023-01-05T03:51:35.074Z,101746.63
2023-01-05T03:54:06.394Z,101743.94
2023-01-05T03:56:34.973Z,101744.00
2023-01-05T03:59:01.542Z,101752.19
2023-01-05T04:01:28.098Z,101754.81
2023-01-05T04:03:55.489Z,101752.28
2023-01-05T04:06:22.933Z,101761.22
2023-01-05T04:08:49.956Z,101765.59
2023-01-05T04:11:22.097Z,101753.84
2023-01-05T04:13:54.231Z,101743.84
2023-01-05T04:16:23.037Z,101755.50
2023-01-05T04:18:51.207Z,101751.13
2023-01-05T04:21:19.605Z,101756.44
2023-01-05T04:23:47.942Z,101756.53
2023-01-05T04:26:15.273Z,101756.53
2023-01-05T04:28:45.898Z,101757.31
2023-01-05T04:31:12.730Z,101753.84
2023-01-05T04:33:40.050Z,101763.84
2023-01-05T04:36:08.186Z,101753.94
2023-01-05T04:38:35.590Z,101760.63
2023-01-05T04:41:02.172Z,101769.06
2023-01-05T04:43:29.171Z,101772.56
2023-01-05T04:45:58.647Z,101776.91
2023-01-05T04:48:25.502Z,101772.47
2023-01-05T04:50:54.650Z,101771.59
2023-01-05T04:53:27.296Z,101783.25
2023-01-05T04:55:53.933Z,101786.88
2023-01-05T04:58:21.444Z,101783.44
2023-01-05T05:00:50.563Z,101779.94
2023-01-05T05:03:17.260Z,101784.56
2023-01-05T05:05:43.875Z,101779.94
2023-01-05T05:08:12.507Z,101784.28
2023-01-05T05:10:39.417Z,101783.53
2023-01-05T05:13:06.019Z,101781.16
2023-01-05T05:15:32.700Z,101793.75
2023-01-05T05:18:07.093Z,101798.31
2023-01-05T05:20:35.844Z,101809.09
2023-01-05T05:23:02.400Z,101808.31
2023-01-05T05:25:32.273Z,101809.09
2023-01-05T05:27:58.811Z,101810.03
2023-01-05T05:30:25.909Z,101811.16
2023-01-05T05:32:52.524Z,101824.56
2023-01-05T05:35:19.080Z,101827.06
2023-01-05T05:37:45.756Z,101827.06
2023-01-05T05:40:13.751Z,101827.06
2023-01-05T05:42:40.161Z,101830.75
2023-01-05T05:45:07.064Z,101834.47
2023-01-05T05:47:33.514Z,101841.44
2023-01-05T05:49:59.972Z,101844.13
2023-01-05T05:52:26.871Z,101843.16
2023-01-05T05:54:53.374Z,101841.34
2023-01-05T05:57:19.859Z,101845.16
2023-01-05T05:59:46.308Z,101856.81
2023-01-05T06:02:12.995Z,101854.91
2023-01-05T06:04:39.689Z,101861.94
2023-01-05T06:07:06.166Z,101862.91
2023-01-05T06:09:32.629Z,101871.78
2023-01-05T06:11:59.514Z,101872.50
2023-01-05T06:14:25.962Z,101871.44
2023-01-05T06:16:52.445Z,101878.75
2023-01-05T06:19:18.896Z,101879.72
2023-01-05T06:21:45.338Z,101884.22
2023-01-05T06:24:11.801Z,101877.91
2023-01-05T06:26:38.221Z,101884.13
2023-01-05T06:29:04.637Z,101883.28
2023-01-05T06:31:31.191Z,101887.53
2023-01-05T06:33:57.642Z,101894.75
2023-01-05T06:36:24.113Z,101894.84
2023-01-05T06:38:50.609Z,101895.81
2023-01-05T06:41:17.116Z,101903.00
2023-01-05T06:43:43.596Z,101904.78
2023-01-05T06:46:10.109Z,101906.41
2023-01-05T06:48:39.935Z,101906.41
2023-01-05T06:51:06.502Z,101919.72
2023-01-05T06:53:32.971Z,101912.41
2023-01-05T06:55:59.472Z,101911.47
2023-01-05T06:58:25.934Z,101917.91
2023-01-05T07:00:54.665Z,101915.28
2023-01-05T07:03:23.560Z,101905.38
2023-01-05T07:05:50.247Z,101919.81
2023-01-05T07:08:16.749Z,101925.28
2023-01-05T07:10:43.258Z,101927.28
2023-01-05T07:13:09.742Z,101924.50
2023-01-05T07:15:36.322Z,101927.19
2023-01-05T07:18:02.741Z,101929.03
2023-01-05T07:20:29.188Z,101937.22
2023-01-05T07:22:55.615Z,101934.56
2023-01-05T07:25:22.073Z,101928.31
2023-01-05T07:27:52.329Z,101945.53
2023-01-05T07:30:19.043Z,101943.78
2023-01-05T07:32:45.558Z,101944.72
2023-01-05T07:35:11.972Z,101936.72
2023-01-05T07:37:38.439Z,101944.81
2023-01-05T07:40:05.575Z,101950.28
2023-01-05T07:42:32.974Z,101949.59
2023-01-05T07:44:59.415Z,101950.63
2023-01-05T07:47:26.359Z,101952.44
2023-01-05T07:49:52.823Z,101956.03
2023-01-05T07:52:19.486Z,101959.59
2023-01-05T07:54:45.946Z,101957.00
2023-01-05T07:57:12.416Z,101962.44
2023-01-05T07:59:39.041Z,101963.22
2023-01-05T08:02:05.978Z,101964.47
2023-01-05T08:04:32.513Z,101961.81
2023-01-05T08:06:59.012Z,101969.91
2023-01-05T08:09:44.169Z,101973.47
2023-01-05T08:12:10.627Z,101977.59
2023-01-05T08:14:37.037Z,101978.31
2023-01-05T08:17:03.498Z,101981.00
2023-01-05T08:19:29.908Z,101977.34
2023-01-05T08:21:56.350Z,101982.63
2023-01-05T08:24:23.255Z,101990.91
2023-01-05T08:26:51.307Z,101991.78
2023-01-05T08:29:17.887Z,101991.69
2023-01-05T08:31:44.399Z,101997.09
2023-01-05T08:34:10.877Z,102007.69
2023-01-05T08:36:37.495Z,102014.81
2023-01-05T08:39:04.280Z,102015.63
2023-01-05T08:41:33.113Z,102020.00
2023-01-05T08:44:02.945Z,102017.13
2023-01-05T08:46:32.768Z,102014.09
2023-01-05T08:49:01.567Z,102020.91
2023-01-05T08:51:29.733Z,102035.03
2023-01-05T08:53:56.939Z,102040.50
2023-01-05T08:56:25.160Z,102037.88
2023-01-05T08:58:52.781Z,102043.19
2023-01-05T09:01:21.916Z,102049.31
2023-01-05T09:03:48.985Z,102046.53
2023-01-05T09:06:15.962Z,102048.97
2023-01-05T09:08:44.381Z,102059.66
2023-01-05T09:11:15.459Z,102059.66
2023-01-05T09:13:56.764Z,102059.56
2023-01-05T09:17:04.663Z,102058.69
2023-01-05T09:19:12.541Z,102054.25
2023-01-05T09:21:41.926Z,102062.09
2023-01-05T09:24:12.726Z,102069.91
2023-01-05T09:26:40.095Z,102063.59
2023-01-05T09:29:06.819Z,102067.66
2023-01-05T09:31:33.367Z,102065.41
2023-01-05T09:33:59.888Z,102068.75
2023-01-05T09:36:26.408Z,102083.19
2023-01-05T09:38:54.305Z,102079.41
2023-01-05T09:41:29.291Z,102085.25
2023-01-05T09:43:59.751Z,102091.25
2023-01-05T09:46:35.209Z,102093.94
2023-01-05T09:49:04.546Z,102091.16
2023-01-05T09:51:31.184Z,102092.06
2023-01-05T09:53:59.698Z,102102.50
2023-01-05T09:59:29.953Z,102096.84
2023-01-05T10:02:00.940Z,102101.91
2023-01-05T10:04:30.975Z,102109.03
2023-01-05T10:07:04.393Z,102109.13
2023-01-05T10:09:35.113Z,102108.25
2023-01-05T10:12:44.030Z,102107.41
2023-01-05T10:15:16.149Z,102104.34
2023-01-05T10:17:44.755Z,102106.63
2023-01-05T10:20:25.077Z,102110.88
2023-01-05T10:23:15.382Z,102109.84
2023-01-05T10:25:54.803Z,102105.13
2023-01-05T10:28:37.654Z,102110.38
2023-01-05T10:31:20.054Z,102114.72
2023-01-05T10:33:56.801Z,102127.28
2023-01-05T10:37:11.070Z,102134.59
2023-01-05T10:39:54.295Z,102137.63
2023-01-05T10:42:47.017Z,102135.28
2023-01-05T10:45:15.781Z,102142.78
2023-01-05T10:47:45.249Z,102126.75
2023-01-05T10:50:40.952Z,102124.03
2023-01-05T10:53:19.773Z,102126.56
2023-01-05T10:55:58.437Z,102122.91
2023-01-05T10:58:30.369Z,102123.59
2023-01-05T11:01:01.346Z,102121.78
2023-01-05T11:06:30.443Z,102123.97
2023-01-05T11:09:10.564Z,102123.72
2023-01-05T11:11:37.120Z,102125.13
2023-01-05T11:14:05.333Z,102122.41
2023-01-05T11:16:35.295Z,102121.16
2023-01-05T11:19:03.209Z,102129.13
2023-01-05T11:21:35.586Z,102123.97
2023-01-05T11:24:03.827Z,102121.06
2023-01-05T11:26:48.928Z,102124.38
2023-01-05T11:29:16.325Z,102123.97
2023-01-05T11:31:48.570Z,102120.75
2023-01-05T11:34:18.797Z,102118.19
2023-01-05T11:36:52.967Z,102123.81
2023-01-05T11:39:29.654Z,102126.94
2023-01-05T11:42:08.215Z,102124.31
2023-01-05T11:44:35.841Z,102117.88
2023-01-05T11:47:04.676Z,102109.91
2023-01-05T11:49:31.546Z,102113.78
2023-01-05T11:51:58.103Z,102113.78
2023-01-05T11:54:39.185Z,102113.41
2023-01-05T11:57:20.158Z,102107.13
2023-01-05T11:59:51.042Z,102096.09
2023-01-05T12:02:51.693Z,102093.06
2023-01-05T12:05:28.358Z,102102.25
2023-01-05T12:08:17.756Z,102106.75
2023-01-05T12:11:10.750Z,102104.84
2023-01-05T12:13:55.527Z,102105.22
2023-01-05T12:16:37.927Z,102109.41
2023-01-05T12:19:29.721Z,102106.38
2023-01-05T12:22:22.980Z,102108.09
2023-01-05T12:25:36.730Z,102111.28
2023-01-05T12:28:56.617Z,102096.91
2023-01-05T12:35:02.660Z,102096.03
2023-01-05T12:37:48.484Z,102095.28
2023-01-05T12:40:38.175Z,102100.34
2023-01-05T12:43:09.254Z,102099.75
2023-01-05T12:46:06.344Z,102106.56
2023-01-05T12:48:52.222Z,102107.97
2023-01-05T12:51:24.899Z,102107.56
2023-01-05T12:54:06.211Z,102107.03
2023-01-05T12:56:42.274Z,102101.22
2023-01-05T12:59:23.333Z,102099.81
2023-01-05T13:01:59.690Z,102097.72
2023-01-05T13:04:46.762Z,102109.84
2023-01-05T13:07:23.905Z,102108.00
2023-01-05T13:10:02.311Z,102110.19
2023-01-05T13:12:29.423Z,102107.94
2023-01-05T13:15:15.040Z,102110.91
2023-01-05T13:17:46.991Z,102104.97
2023-01-05T13:20:22.921Z,102109.78
2023-01-05T13:22:53.433Z,102102.69
2023-01-05T13:25:27.465Z,102099.06
2023-01-05T13:27:54.043Z,102099.66
2023-01-05T13:30:26.287Z,102104.28
2023-01-05T13:33:26.004Z,102109.50
2023-01-05T13:36:07.652Z,102112.19
2023-01-05T13:39:07.292Z,102096.88
2023-01-05T13:41:41.979Z,102099.47
2023-01-05T13:44:20.630Z,102096.50
2023-01-05T13:47:14.391Z,102102.63
2023-01-05T13:50:02.824Z,102096.84
2023-01-05T13:52:35.294Z,102101.13
2023-01-05T13:55:03.968Z,102098.16
2023-01-05T13:57:38.887Z,102090.56
2023-01-05T14:00:20.645Z,102093.16
2023-01-05T14:02:59.279Z,102093.00
2023-01-05T14:05:32.869Z,102094.84
2023-01-05T14:08:04.664Z,102094.13
2023-01-05T14:10:33.935Z,102089.63
2023-01-05T14:13:00.612Z,102091.63
2023-01-05T14:15:43.662Z,102093.03
2023-01-05T14:18:13.629Z,102094.22
2023-01-05T14:20:44.986Z,102088.03
2023-01-05T14:23:23.729Z,102090.06
2023-01-05T14:25:57.374Z,102097.41
2023-01-05T14:28:29.957Z,102099.31
2023-01-05T14:31:25.921Z,102092.41
2023-01-05T14:33:59.561Z,102098.00
2023-01-05T14:36:31.393Z,102099.19
2023-01-05T14:38:59.553Z,102088.66
2023-01-05T14:41:28.660Z,102091.72
2023-01-05T14:44:04.540Z,102091.03
2023-01-05T14:46:54.115Z,102094.03
2023-01-05T14:49:34.502Z,102087.09
2023-01-05T14:52:04.066Z,102080.19
2023-01-05T14:54:42.525Z,102084.03
2023-01-05T14:57:27.015Z,102085.94
2023-01-05T15:00:07.534Z,102092.28
2023-01-05T15:02:46.581Z,102091.44
2023-01-05T15:05:18.315Z,102095.88
2023-01-05T15:08:11.967Z,102094.22
2023-01-05T15:10:57.147Z,102099.75
2023-01-05T15:14:19.263Z,102099.22
2023-01-05T15:17:21.764Z,102099.56
2023-01-05T15:20:09.970Z,102098.84
2023-01-05T15:22:55.826Z,102096.41
2023-01-05T15:25:49.261Z,102093.91
2023-01-05T15:28:39.424Z,102094.91
2023-01-05T15:31:30.197Z,102092.22
2023-01-05T15:34:23.942Z,102100.31
2023-01-05T15:37:11.475Z,102087.00
2023-01-05T15:39:55.663Z,102097.69
2023-01-05T15:42:44.713Z,102090.63
2023-01-05T15:45:19.993Z,102081.69
2023-01-05T15:47:47.277Z,102083.59
2023-01-05T15:50:22.552Z,102085.56
2023-01-05T15:53:00.095Z,102077.56
2023-01-05T15:55:28.876Z,102083.00
2023-01-05T15:58:01.057Z,102087.59
2023-01-05T16:00:31.175Z,102078.72
2023-01-05T16:02:57.777Z,102079.84
2023-01-05T16:05:30.381Z,102079.94
2023-01-05T16:07:59.763Z,102082.56
2023-01-05T16:10:28.936Z,102080.06
2023-01-05T16:13:04.670Z,102071.22
2023-01-05T16:15:34.514Z,102072.22
2023-01-05T16:18:02.772Z,102071.69
2023-01-05T16:20:29.850Z,102065.75
2023-01-05T16:23:08.777Z,102065.84
2023-01-05T16:25:48.671Z,102058.84
2023-01-05T16:28:18.291Z,102069.53
2023-01-05T16:30:46.796Z,102058.75
2023-01-05T16:33:30.115Z,102055.34
2023-01-05T16:36:23.006Z,102051.94
2023-01-05T16:38:49.464Z,102049.41
2023-01-05T16:41:25.455Z,102053.94
2023-01-05T16:43:51.931Z,102046.72
2023-01-05T16:46:20.453Z,102047.69
2023-01-05T16:48:52.712Z,102049.41
2023-01-05T16:51:38.713Z,102047.75
2023-01-05T16:54:09.990Z,102041.41
2023-01-05T16:56:36.384Z,102043.25
2023-01-05T16:59:24.422Z,102046.00
2023-01-05T17:01:52.116Z,102042.53
2023-01-05T17:04:18.652Z,102045.16
2023-01-05T17:06:47.996Z,102045.94
2023-01-05T17:09:25.496Z,102039.59
2023-01-05T17:11:52.100Z,102044.09
2023-01-05T17:14:19.847Z,102037.06
2023-01-05T17:16:46.435Z,102044.09
2023-01-05T17:19:14.655Z,102049.56
2023-01-05T17:21:51.045Z,102043.31
2023-01-05T17:24:17.487Z,102050.63
2023-01-05T17:26:45.403Z,102043.38
2023-01-05T17:29:21.215Z,102040.69
2023-01-05T17:31:48.470Z,102037.16
2023-01-05T17:34:14.885Z,102038.97
2023-01-05T17:36:42.144Z,102036.34
2023-01-05T17:39:10.109Z,102030.06
2023-01-05T17:44:08.737Z,102021.97
2023-01-05T17:46:38.160Z,102015.66
2023-01-05T17:49:04.614Z,102017.47
2023-01-05T17:51:31.651Z,102024.59
2023-01-05T17:53:59.427Z,102015.59
2023-01-05T17:56:26.170Z,102007.56
2023-01-05T17:58:52.930Z,102005.72
2023-01-05T18:01:20.063Z,102008.34
2023-01-05T18:06:18.921Z,102001.84
2023-01-05T18:08:45.378Z,101995.50
2023-01-05T18:11:11.907Z,101995.41
2023-01-05T18:13:38.753Z,101990.03
2023-01-05T18:16:10.501Z,101985.50
2023-01-05T18:18:36.998Z,101985.41
2023-01-05T18:21:05.058Z,101983.59
2023-01-05T18:23:32.460Z,101984.31
2023-01-05T18:26:03.765Z,101985.13
2023-01-05T18:28:30.256Z,101977.88
2023-01-05T18:30:56.723Z,101979.63
2023-01-05T18:33:23.377Z,101977.78
2023-01-05T18:35:50.779Z,101970.59
2023-01-05T18:38:20.809Z,101969.56
2023-01-05T18:40:49.286Z,101964.09
2023-01-05T18:43:16.985Z,101966.59
2023-01-05T18:45:44.107Z,101965.56
2023-01-05T18:48:10.610Z,101970.81
2023-01-05T18:50:49.918Z,101965.25
2023-01-05T18:53:17.508Z,101963.41
2023-01-05T18:55:44.004Z,101959.69
2023-01-05T18:58:11.699Z,101959.50
2023-01-05T19:00:42.747Z,101947.78
2023-01-05T19:03:10.061Z,101952.19
2023-01-05T19:05:44.421Z,101962.81
2023-01-05T19:08:12.652Z,101961.00
2023-01-05T19:10:39.858Z,101949.25
2023-01-05T19:13:06.852Z,101955.50
2023-01-05T19:15:35.031Z,101954.53
2023-01-05T19:18:02.098Z,101950.03
2023-01-05T19:20:28.559Z,101953.63
2023-01-05T19:22:55.019Z,101957.97
2023-01-05T19:25:21.510Z,101966.00
2023-01-05T19:27:48.489Z,101963.19
2023-01-05T19:30:17.537Z,101964.97
2023-01-05T19:32:44.467Z,101955.81
2023-01-05T19:35:11.180Z,101965.56
2023-01-05T19:37:42.303Z,101970.00
2023-01-05T19:40:10.126Z,101966.38
2023-01-05T19:42:36.869Z,101960.00
2023-01-05T19:45:03.725Z,101959.03
2023-01-05T19:47:30.570Z,101960.00
2023-01-05T19:49:57.030Z,101953.72
2023-01-05T19:52:29.470Z,101950.09
2023-01-05T19:54:56.371Z,101957.31
2023-01-05T19:57:23.236Z,101957.13
2023-01-05T19:59:51.322Z,101958.00
2023-01-05T20:02:18.227Z,101944.53
2023-01-05T20:04:46.512Z,101950.78
2023-01-05T20:07:13.251Z,101941.13
2023-01-05T20:09:40.381Z,101940.41
2023-01-05T20:12:14.353Z,101943.47
2023-01-05T20:14:42.043Z,101933.84
2023-01-05T20:17:09.906Z,101933.31
2023-01-05T20:19:37.889Z,101928.00
2023-01-05T20:22:07.553Z,101929.91
2023-01-05T20:24:36.617Z,101934.53
2023-01-05T20:27:04.768Z,101937.41
2023-01-05T20:29:31.896Z,101934.00
2023-01-05T20:32:05.301Z,101936.69
2023-01-05T20:34:35.218Z,101934.59
2023-01-05T20:37:04.065Z,101932.63
2023-01-05T20:39:31.085Z,101929.75
2023-01-05T20:42:04.408Z,101932.25
2023-01-05T20:44:34.251Z,101932.13
2023-01-05T20:47:01.322Z,101931.88
2023-01-05T20:49:27.882Z,101923.72
2023-01-05T20:51:54.414Z,101930.78
2023-01-05T20:54:20.926Z,101921.72
2023-01-05T20:56:49.185Z,101930.69
2023-01-05T20:59:29.909Z,101926.13
2023-01-05T21:01:56.822Z,101928.75
2023-01-05T21:04:25.374Z,101930.50
2023-01-05T21:06:59.301Z,101927.81
2023-01-05T21:09:28.693Z,101925.13
2023-01-05T21:11:55.792Z,101917.94
2023-01-05T21:14:22.200Z,101908.03
2023-01-05T21:16:52.227Z,101905.16
2023-01-05T21:19:21.801Z,101905.16
2023-01-05T21:21:50.606Z,101912.41
2023-01-05T21:24:17.261Z,101912.41
2023-01-05T21:26:44.144Z,101905.16
2023-01-05T21:29:14.354Z,101911.53
2023-01-05T21:31:41.075Z,101912.50
2023-01-05T21:34:08.115Z,101919.72
2023-01-05T21:36:38.370Z,101919.72
2023-01-05T21:39:08.291Z,101925.13
2023-01-05T21:41:55.964Z,101917.19
2023-01-05T21:44:23.206Z,101909.19
2023-01-05T21:46:50.451Z,101913.72
2023-01-05T21:49:18.158Z,101908.41
2023-01-05T21:52:03.476Z,101908.41
2023-01-05T21:54:49.201Z,101912.91
2023-01-05T21:57:16.021Z,101911.19
2023-01-05T21:59:43.372Z,101904.03
2023-01-05T22:02:10.154Z,101905.78
2023-01-05T22:04:37.051Z,101906.63
2023-01-05T22:07:05.237Z,101894.13
2023-01-05T22:09:31.737Z,101895.00
2023-01-05T22:11:58.222Z,101894.13
2023-01-05T22:14:24.669Z,101891.47
2023-01-05T22:16:52.082Z,101887.75
2023-01-05T22:19:18.572Z,101894.13
2023-01-05T22:21:45.151Z,101890.59
2023-01-05T22:24:12.728Z,101884.41
2023-01-05T22:26:39.743Z,101884.41
2023-01-05T22:29:06.303Z,101891.66
2023-01-05T22:31:35.510Z,101888.09
2023-01-05T22:34:02.756Z,101876.41
2023-01-05T22:36:30.733Z,101882.78
2023-01-05T22:38:58.553Z,101886.34
2023-01-05T22:41:29.835Z,101871.09
2023-01-05T22:43:56.816Z,101876.59
2023-01-05T22:46:27.932Z,101875.63
2023-01-05T22:48:55.382Z,101870.31
2023-01-05T22:51:27.853Z,101879.19
2023-01-05T22:53:55.154Z,101878.41
2023-01-05T22:56:23.248Z,101870.31
2023-01-05T22:58:50.145Z,101882.88
2023-01-05T23:01:25.005Z,101882.97
2023-01-05T23:03:52.940Z,101878.41
2023-01-05T23:06:19.830Z,101880.16
2023-01-05T23:08:47.324Z,101875.63
2023-01-05T23:11:30.575Z,101869.28
2023-01-05T23:13:58.702Z,101867.47
2023-01-05T23:16:26.140Z,101871.09
2023-01-05T23:18:53.380Z,101863.19
2023-01-05T23:21:22.091Z,101859.72
2023-01-05T23:23:51.340Z,101864.22
2023-01-05T23:26:17.802Z,101855.28
2023-01-05T23:28:44.788Z,101858.91
2023-01-05T23:31:14.499Z,101848.13
2023-01-05T23:33:41.631Z,101849.19
2023-01-05T23:36:09.522Z,101846.50
2023-01-05T23:38:36.498Z,101836.72
2023-01-05T23:41:06.127Z,101834.03
2023-01-05T23:43:33.194Z,101835.78
2023-01-05T23:46:02.315Z,101828.56
2023-01-05T23:48:29.301Z,101834.81
2023-01-05T23:50:56.981Z,101823.16
2023-01-05T23:53:24.607Z,101831.25
2023-01-05T23:55:51.252Z,101819.63
2023-01-05T23:58:17.833Z,101820.47
